Time;durP1;ratioP1;P1;durP2;ratioP2;P2;SDS_P1;SDS_P2;PMS_P1;PMS_P2;Temp;Humidity;BMP_temperature;BMP_pressure;BME280_temperature;BME280_humidity;BME280_pressure;Samples;Min_cycle;Max_cycle;Signal;HPM_P1;HPM_P2
2023/11/09 00:02:54;;;;;;;14.90;10.70;;;;;;;;;;10583401;27;20445;-95
2023/11/09 00:07:57;;;;;;;14.43;10.02;;;;;;;;;;10576539;27;20901;-95
2023/11/09 00:13:01;;;;;;;16.97;10.17;;;;;;;;;;10579658;28;20404;-95
2023/11/09 00:18:04;;;;;;;14.73;10.30;;;;;;;;;;10577384;28;20481;-96
2023/11/09 00:23:06;;;;;;;15.60;10.70;;;;;;;;;;10577293;27;20396;-96
2023/11/09 00:28:10;;;;;;;14.20;9.77;;;;;;;;;;10577068;27;20411;-96
2023/11/09 00:33:12;;;;;;;14.32;10.23;;;;;;;;;;10582514;27;20399;-95
2023/11/09 00:38:15;;;;;;;13.10;9.33;;;;;;;;;;10569675;28;20434;-95
2023/11/09 00:43:19;;;;;;;13.63;9.32;;;;;;;;;;10599213;28;20406;-96
2023/11/09 00:48:21;;;;;;;14.15;9.40;;;;;;;;;;10574442;28;20415;-94
2023/11/09 00:53:24;;;;;;;13.73;8.60;;;;;;;;;;10576902;28;20411;-95
2023/11/09 00:58:27;;;;;;;11.18;7.95;;;;;;;;;;10580546;27;20459;-95
2023/11/09 01:03:30;;;;;;;10.82;8.27;;;;;;;;;;10587792;28;20429;-96
2023/11/09 01:08:33;;;;;;;10.37;7.27;;;;;;;;;;10594693;28;20427;-96
2023/11/09 01:13:37;;;;;;;9.80;6.20;;;;;;;;;;10574565;28;20444;-95
2023/11/09 01:18:39;;;;;;;11.63;7.90;;;;;;;;;;10568114;28;20892;-94
2023/11/09 01:23:42;;;;;;;12.35;7.85;;;;;;;;;;10580089;27;20762;-95
2023/11/09 01:28:45;;;;;;;9.55;7.10;;;;;;;;;;10577280;27;20960;-95
2023/11/09 01:33:48;;;;;;;10.10;7.38;;;;;;;;;;10569180;27;20461;-95
2023/11/09 01:38:50;;;;;;;11.52;7.50;;;;;;;;;;10591943;28;20367;-96
2023/11/09 01:43:57;;;;;;;11.95;7.57;;;;;;;;;;10570939;27;20405;-95
2023/11/09 01:49:00;;;;;;;10.37;7.43;;;;;;;;;;10573603;27;20842;-95
2023/11/09 01:54:03;;;;;;;12.32;7.80;;;;;;;;;;10574849;28;20402;-95
2023/11/09 01:59:08;;;;;;;12.50;8.53;;;;;;;;;;10576579;28;20430;-95
2023/11/09 02:04:10;;;;;;;12.73;8.33;;;;;;;;;;10554494;27;20396;-95
2023/11/09 02:09:13;;;;;;;12.63;7.53;;;;;;;;;;10566987;27;20626;-95
2023/11/09 02:14:17;;;;;;;11.50;7.57;;;;;;;;;;10574235;27;20485;-95
2023/11/09 02:19:21;;;;;;;11.45;7.57;;;;;;;;;;10573522;27;20387;-95
2023/11/09 02:24:26;;;;;;;11.52;7.53;;;;;;;;;;10567021;27;20796;-95
2023/11/09 02:29:29;;;;;;;9.07;6.72;;;;;;;;;;10576530;27;20472;-95
2023/11/09 02:34:37;;;;;;;11.60;7.60;;;;;;;;;;10576306;27;20398;-95
2023/11/09 02:39:40;;;;;;;11.17;7.97;;;;;;;;;;10576257;28;20392;-94
2023/11/09 02:44:43;;;;;;;9.98;7.55;;;;;;;;;;10567415;27;20508;-96
2023/11/09 02:49:45;;;;;;;8.98;7.45;;;;;;;;;;10572488;27;20882;-95
2023/11/09 02:54:49;;;;;;;8.93;6.07;;;;;;;;;;10571624;27;20439;-95
2023/11/09 02:59:51;;;;;;;8.20;5.70;;;;;;;;;;10574615;27;20406;-94
2023/11/09 03:04:53;;;;;;;7.53;5.47;;;;;;;;;;10580101;27;20444;-95
2023/11/09 03:09:57;;;;;;;7.15;5.80;;;;;;;;;;10620168;27;20435;-95
2023/11/09 03:14:59;;;;;;;7.72;5.50;;;;;;;;;;10596222;28;20522;-95
2023/11/09 03:20:02;;;;;;;7.93;5.55;;;;;;;;;;10569275;28;20400;-94
2023/11/09 03:25:08;;;;;;;8.30;5.55;;;;;;;;;;10571497;28;20404;-94
2023/11/09 03:30:12;;;;;;;8.20;5.57;;;;;;;;;;10561331;28;20896;-96
2023/11/09 03:35:14;;;;;;;7.75;6.00;;;;;;;;;;10588539;28;20452;-95
2023/11/09 03:40:18;;;;;;;9.33;5.57;;;;;;;;;;10562280;27;20413;-95
2023/11/09 03:45:20;;;;;;;7.57;5.63;;;;;;;;;;10576091;28;20410;-96
2023/11/09 03:50:22;;;;;;;8.37;5.93;;;;;;;;;;10563963;28;20492;-95
2023/11/09 03:55:26;;;;;;;8.20;5.70;;;;;;;;;;10581197;28;20400;-95
2023/11/09 04:00:28;;;;;;;9.38;6.18;;;;;;;;;;10570297;27;20404;-95
2023/11/09 04:05:32;;;;;;;9.00;6.20;;;;;;;;;;10578674;28;20956;-96
2023/11/09 04:10:35;;;;;;;7.60;5.90;;;;;;;;;;10581878;27;20931;-95
2023/11/09 04:15:40;;;;;;;8.57;6.13;;;;;;;;;;10564338;27;20514;-95
2023/11/09 04:20:43;;;;;;;6.07;5.33;;;;;;;;;;10576038;27;20402;-95
2023/11/09 04:25:46;;;;;;;8.82;5.82;;;;;;;;;;10574040;28;20389;-94
2023/11/09 04:30:51;;;;;;;6.82;5.10;;;;;;;;;;10587715;28;20398;-94
2023/11/09 04:35:55;;;;;;;6.37;5.40;;;;;;;;;;10588832;27;20997;-96
2023/11/09 04:41:03;;;;;;;8.30;5.57;;;;;;;;;;10577114;27;20426;-95
2023/11/09 04:46:10;;;;;;;10.30;5.80;;;;;;;;;;10575910;27;20992;-95
2023/11/09 04:51:20;;;;;;;7.18;5.00;;;;;;;;;;10572059;28;20507;-94
2023/11/09 04:56:39;;;;;;;8.15;4.80;;;;;;;;;;10582513;27;20472;-95
2023/11/09 05:07:15;;;;;;;6.25;4.78;;;;;;;;;;10544273;28;20502;-94
2023/11/09 05:12:19;;;;;;;9.33;5.53;;;;;;;;;;10564956;27;20581;-94
2023/11/09 05:17:22;;;;;;;8.20;5.47;;;;;;;;;;10568271;27;20464;-96
2023/11/09 05:22:26;;;;;;;7.97;4.63;;;;;;;;;;10575590;27;20408;-94
2023/11/09 05:27:30;;;;;;;6.53;4.43;;;;;;;;;;10573069;28;20367;-92
2023/11/09 05:32:32;;;;;;;6.68;4.43;;;;;;;;;;10598431;27;20477;-94
2023/11/09 05:37:35;;;;;;;6.47;4.55;;;;;;;;;;10574605;27;20400;-94
2023/11/09 05:42:42;;;;;;;7.40;4.70;;;;;;;;;;10576406;27;20404;-94
2023/11/09 05:47:44;;;;;;;7.03;4.68;;;;;;;;;;10564454;27;20835;-94
2023/11/09 05:52:46;;;;;;;8.35;4.97;;;;;;;;;;10568781;28;20873;-95
2023/11/09 05:57:51;;;;;;;9.37;6.40;;;;;;;;;;10552261;27;20439;-95
2023/11/09 06:02:53;;;;;;;12.02;6.60;;;;;;;;;;10574116;27;20469;-94
2023/11/09 06:07:56;;;;;;;9.68;6.15;;;;;;;;;;10561400;27;20888;-95
2023/11/09 06:13:00;;;;;;;9.87;6.83;;;;;;;;;;10567232;27;20484;-92
2023/11/09 06:18:02;;;;;;;11.93;6.93;;;;;;;;;;10567815;27;20445;-93
2023/11/09 06:23:05;;;;;;;13.80;6.77;;;;;;;;;;10574744;27;20854;-93
2023/11/09 06:28:09;;;;;;;14.97;7.20;;;;;;;;;;10602588;27;20439;-93
2023/11/09 06:33:12;;;;;;;10.48;6.68;;;;;;;;;;10570999;27;20454;-95
2023/11/09 06:38:19;;;;;;;69.93;38.33;;;;;;;;;;10562261;27;20445;-96
2023/11/09 06:43:23;;;;;;;15.27;9.10;;;;;;;;;;10567721;28;20402;-95
2023/11/09 06:48:25;;;;;;;20.65;9.95;;;;;;;;;;10553174;28;20457;-92
2023/11/09 06:53:28;;;;;;;21.42;13.27;;;;;;;;;;10560837;28;20429;-91
2023/11/09 06:58:32;;;;;;;11.57;7.35;;;;;;;;;;10565336;28;20757;-92
2023/11/09 07:03:34;;;;;;;9.77;6.30;;;;;;;;;;10562326;28;20449;-94
2023/11/09 07:08:37;;;;;;;8.98;6.20;;;;;;;;;;10551937;27;20942;-92
2023/11/09 07:13:41;;;;;;;8.68;5.88;;;;;;;;;;10586021;27;20495;-93
2023/11/09 07:18:45;;;;;;;7.85;5.53;;;;;;;;;;10609540;27;20442;-93
2023/11/09 07:23:50;;;;;;;8.00;5.28;;;;;;;;;;10610195;28;20399;-93
2023/11/09 07:28:54;;;;;;;10.90;7.10;;;;;;;;;;10575131;28;20400;-93
2023/11/09 07:33:56;;;;;;;10.60;6.55;;;;;;;;;;10565614;28;20421;-93
2023/11/09 07:38:59;;;;;;;11.82;7.20;;;;;;;;;;10587096;28;20400;-91
2023/11/09 07:44:03;;;;;;;8.43;6.47;;;;;;;;;;10584205;28;20400;-92
2023/11/09 07:49:07;;;;;;;8.87;6.47;;;;;;;;;;10582290;28;20451;-93
2023/11/09 07:54:10;;;;;;;17.23;7.20;;;;;;;;;;10577935;28;20875;-93
2023/11/09 07:59:13;;;;;;;21.15;11.93;;;;;;;;;;10578956;28;20451;-92
2023/11/09 08:04:16;;;;;;;23.88;15.02;;;;;;;;;;10564439;28;20434;-92
2023/11/09 08:09:19;;;;;;;14.30;8.05;;;;;;;;;;10591716;28;20511;-93
2023/11/09 08:14:22;;;;;;;9.23;5.43;;;;;;;;;;10564605;28;20410;-92
2023/11/09 08:19:25;;;;;;;20.00;7.25;;;;;;;;;;10578742;28;20391;-92
2023/11/09 08:24:30;;;;;;;11.57;6.60;;;;;;;;;;10590523;28;20943;-93
2023/11/09 08:29:35;;;;;;;10.82;7.05;;;;;;;;;;10575045;27;20451;-93
2023/11/09 08:34:40;;;;;;;11.20;6.20;;;;;;;;;;10588549;27;20418;-92
2023/11/09 08:39:43;;;;;;;9.63;5.35;;;;;;;;;;10575105;28;20394;-93
2023/11/09 08:44:47;;;;;;;9.02;5.35;;;;;;;;;;10587899;27;20399;-93
2023/11/09 08:49:49;;;;;;;10.45;5.50;;;;;;;;;;10591601;27;20947;-92
2023/11/09 08:54:56;;;;;;;8.65;5.72;;;;;;;;;;10558184;28;20400;-93
2023/11/09 09:00:01;;;;;;;9.30;5.55;;;;;;;;;;10544210;28;20457;-93
2023/11/09 09:05:04;;;;;;;8.40;5.78;;;;;;;;;;10575627;27;20398;-91
2023/11/09 09:10:11;;;;;;;8.13;5.20;;;;;;;;;;10578526;27;20421;-93
2023/11/09 09:15:16;;;;;;;8.43;5.00;;;;;;;;;;10583460;27;20395;-92
2023/11/09 09:20:20;;;;;;;9.65;5.35;;;;;;;;;;10576957;28;20477;-92
2023/11/09 09:25:24;;;;;;;13.10;5.60;;;;;;;;;;10602137;27;20409;-92
2023/11/09 09:30:29;;;;;;;8.90;5.25;;;;;;;;;;10564489;27;20420;-93
2023/11/09 09:35:32;;;;;;;8.85;5.80;;;;;;;;;;10568195;27;20390;-93
2023/11/09 09:40:36;;;;;;;9.60;5.78;;;;;;;;;;10590514;27;20975;-93
2023/11/09 09:45:41;;;;;;;9.43;6.13;;;;;;;;;;10578072;28;20395;-93
2023/11/09 09:50:44;;;;;;;9.20;5.50;;;;;;;;;;10569433;28;20452;-93
2023/11/09 09:55:46;;;;;;;11.00;6.15;;;;;;;;;;10570970;27;20726;-93
2023/11/09 10:00:54;;;;;;;7.70;5.75;;;;;;;;;;10570511;27;20464;-94
2023/11/09 10:05:56;;;;;;;10.07;5.50;;;;;;;;;;10567526;27;20410;-93
2023/11/09 10:10:59;;;;;;;11.82;6.20;;;;;;;;;;10557942;27;20408;-93
2023/11/09 10:16:02;;;;;;;10.68;6.03;;;;;;;;;;10562824;27;20399;-93
2023/11/09 10:21:07;;;;;;;9.40;6.07;;;;;;;;;;10581550;22;20924;-81
2023/11/09 10:26:11;;;;;;;7.88;5.50;;;;;;;;;;10539074;28;20937;-80
2023/11/09 12:52:34;;;;;;;13.80;8.80;;;;;;;;;;12876191;22;2332911;-80
2023/11/09 12:57:41;;;;;;;13.73;8.25;;;;;;;;;;12947476;22;20379;-80
2023/11/09 13:02:44;;;;;;;13.38;8.32;;;;;;;;;;12977343;22;20389;-80
2023/11/09 13:07:47;;;;;;;11.80;8.05;;;;;;;;;;12977554;22;20359;-80
2023/11/09 13:12:51;;;;;;;11.68;7.55;;;;;;;;;;12976469;22;20959;-80
2023/11/09 13:17:56;;;;;;;13.50;8.40;;;;;;;;;;12976591;22;20351;-80
2023/11/09 13:23:07;;;;;;;12.23;7.88;;;;;;;;;;12976457;22;20417;-81
2023/11/09 13:28:13;;;;;;;10.65;7.05;;;;;;;;;;12973583;22;20426;-80
2023/11/09 13:33:29;;;;;;;10.18;6.97;;;;;;;;;;12975675;22;20672;-82
2023/11/09 13:38:43;;;;;;;11.50;7.22;;;;;;;;;;12969616;22;20823;-81
2023/11/09 13:49:17;;;;;;;13.00;7.35;;;;;;;;;;12971613;22;20389;-82
2023/11/09 13:54:28;;;;;;;13.43;7.07;;;;;;;;;;12971306;22;20382;-82
2023/11/09 13:59:30;;;;;;;11.68;7.10;;;;;;;;;;12972311;22;20362;-82
2023/11/09 14:04:33;;;;;;;14.00;8.82;;;;;;;;;;12970881;22;20374;-82
2023/11/09 14:09:42;;;;;;;13.38;7.68;;;;;;;;;;12972357;22;20440;-81
2023/11/09 14:14:48;;;;;;;13.20;7.45;;;;;;;;;;12974303;22;20441;-82
2023/11/09 14:19:53;;;;;;;13.38;8.10;;;;;;;;;;12975635;22;20882;-82
2023/11/09 14:24:57;;;;;;;12.20;7.82;;;;;;;;;;12964192;22;20367;-81
2023/11/09 14:29:59;;;;;;;13.10;8.03;;;;;;;;;;12970579;22;20363;-81
2023/11/09 14:35:02;;;;;;;12.48;7.68;;;;;;;;;;12971861;22;20479;-81
2023/11/09 14:40:14;;;;;;;12.53;8.07;;;;;;;;;;12970621;22;20826;-80
2023/11/09 14:45:18;;;;;;;17.23;8.57;;;;;;;;;;12970099;22;20393;-80
2023/11/09 14:50:20;;;;;;;15.05;9.18;;;;;;;;;;12969250;22;20672;-79
2023/11/09 14:55:27;;;;;;;17.05;9.48;;;;;;;;;;12969821;22;20478;-80
2023/11/09 15:00:29;;;;;;;15.50;8.90;;;;;;;;;;12969621;22;20362;-79
2023/11/09 15:05:34;;;;;;;15.15;8.95;;;;;;;;;;12966675;22;20358;-80
2023/11/09 15:10:38;;;;;;;16.10;9.77;;;;;;;;;;12970690;22;20388;-80
2023/11/09 15:15:41;;;;;;;15.55;9.40;;;;;;;;;;12971269;22;20379;-80
2023/11/09 15:20:44;;;;;;;15.30;8.93;;;;;;;;;;12970543;22;20898;-80
2023/11/09 15:25:51;;;;;;;15.40;8.70;;;;;;;;;;12971503;22;20367;-80
2023/11/09 15:30:53;;;;;;;16.70;9.37;;;;;;;;;;12972646;22;20440;-80
2023/11/09 15:35:57;;;;;;;16.13;8.60;;;;;;;;;;12972176;22;20656;-82
2023/11/09 15:41:02;;;;;;;13.63;7.93;;;;;;;;;;12967913;22;20405;-80
2023/11/09 15:46:06;;;;;;;14.80;8.95;;;;;;;;;;12975311;22;20362;-80
2023/11/09 15:51:09;;;;;;;18.50;9.68;;;;;;;;;;12972957;22;20367;-81
2023/11/09 15:56:13;;;;;;;17.60;9.13;;;;;;;;;;12971968;22;20436;-80
2023/11/09 16:01:19;;;;;;;19.75;10.30;;;;;;;;;;12973665;22;20366;-79
2023/11/09 16:06:22;;;;;;;19.23;10.57;;;;;;;;;;12975598;22;20367;-79
2023/11/09 16:11:25;;;;;;;20.48;10.10;;;;;;;;;;12970774;22;20362;-80
2023/11/09 16:16:31;;;;;;;17.20;10.37;;;;;;;;;;12972674;22;20449;-80
2023/11/09 16:21:34;;;;;;;20.63;10.93;;;;;;;;;;12971943;22;20405;-80
2023/11/09 16:26:41;;;;;;;23.52;13.13;;;;;;;;;;12971544;22;20397;-80
2023/11/09 16:31:43;;;;;;;24.10;14.18;;;;;;;;;;12974083;22;20668;-80
2023/11/09 16:36:46;;;;;;;25.40;13.45;;;;;;;;;;12974717;22;20448;-80
2023/11/09 16:41:50;;;;;;;23.33;13.07;;;;;;;;;;12967574;22;20363;-80
2023/11/09 16:46:52;;;;;;;18.95;12.27;;;;;;;;;;12965544;22;20378;-80
2023/11/09 16:51:55;;;;;;;22.50;12.70;;;;;;;;;;12965021;22;20448;-80
2023/11/09 16:56:58;;;;;;;20.38;12.75;;;;;;;;;;12967014;22;20390;-80
2023/11/09 17:02:01;;;;;;;26.47;12.47;;;;;;;;;;12966019;22;20383;-80
2023/11/09 17:07:04;;;;;;;25.23;12.57;;;;;;;;;;12965288;22;20412;-80
2023/11/09 17:12:08;;;;;;;22.67;13.55;;;;;;;;;;12965676;22;20375;-80
2023/11/09 17:17:10;;;;;;;24.37;14.43;;;;;;;;;;12939172;22;20870;-80
2023/11/09 17:22:12;;;;;;;20.33;13.40;;;;;;;;;;12965642;22;20366;-81
2023/11/09 17:27:16;;;;;;;24.40;13.90;;;;;;;;;;12966171;22;20436;-80
2023/11/09 17:32:18;;;;;;;24.48;14.07;;;;;;;;;;12963864;22;20469;-80
2023/11/09 17:37:21;;;;;;;24.02;14.45;;;;;;;;;;12963167;22;20432;-80
2023/11/09 17:42:25;;;;;;;27.00;16.50;;;;;;;;;;12959135;22;20374;-81
2023/11/09 17:47:27;;;;;;;25.75;15.18;;;;;;;;;;12962270;22;20926;-81
2023/11/09 17:52:29;;;;;;;26.52;15.52;;;;;;;;;;12962308;22;20383;-80
2023/11/09 17:57:33;;;;;;;26.40;15.00;;;;;;;;;;12964747;22;20723;-81
2023/11/09 18:02:36;;;;;;;22.02;15.15;;;;;;;;;;12966126;22;20468;-80
2023/11/09 18:07:39;;;;;;;22.88;14.32;;;;;;;;;;12965843;22;20378;-80
2023/11/09 18:12:44;;;;;;;25.50;15.90;;;;;;;;;;12958964;22;20987;-80
2023/11/09 18:17:46;;;;;;;26.98;17.33;;;;;;;;;;12962743;22;20378;-80
2023/11/09 18:22:48;;;;;;;24.35;15.25;;;;;;;;;;12961156;22;20413;-80
2023/11/09 18:27:52;;;;;;;35.30;23.10;;;;;;;;;;12962520;22;20460;-80
2023/11/09 18:32:54;;;;;;;29.47;17.63;;;;;;;;;;12962305;22;20386;-79
2023/11/09 18:37:57;;;;;;;31.90;20.07;;;;;;;;;;12961790;22;20448;-79
2023/11/09 18:43:01;;;;;;;33.47;20.93;;;;;;;;;;12973410;22;20842;-80
2023/11/09 18:48:03;;;;;;;29.58;19.65;;;;;;;;;;12960408;22;20428;-80
2023/11/09 18:53:06;;;;;;;34.90;20.52;;;;;;;;;;12959335;22;20409;-81
2023/11/09 18:58:10;;;;;;;30.77;20.17;;;;;;;;;;12963196;22;20383;-80
2023/11/09 19:03:12;;;;;;;46.88;30.58;;;;;;;;;;12965272;22;20374;-80
2023/11/09 19:08:19;;;;;;;30.38;18.45;;;;;;;;;;12966229;22;20428;-80
2023/11/09 19:13:25;;;;;;;31.20;19.52;;;;;;;;;;12971823;22;20371;-80
2023/11/09 19:18:29;;;;;;;29.88;17.10;;;;;;;;;;12971406;22;20382;-80
2023/11/09 19:23:31;;;;;;;27.90;16.15;;;;;;;;;;12969651;22;20374;-80
2023/11/09 19:28:35;;;;;;;29.13;17.83;;;;;;;;;;12941372;22;20378;-81
2023/11/09 19:33:38;;;;;;;28.42;17.08;;;;;;;;;;12967163;22;21059;-80
2023/11/09 19:38:41;;;;;;;24.17;15.67;;;;;;;;;;12970270;22;20456;-80
2023/11/09 19:43:45;;;;;;;26.58;16.17;;;;;;;;;;12970946;22;20432;-82
2023/11/09 19:48:47;;;;;;;24.83;16.35;;;;;;;;;;12970599;22;20445;-82
2023/11/09 19:53:50;;;;;;;25.50;15.80;;;;;;;;;;12983148;22;20379;-82
2023/11/09 19:58:55;;;;;;;25.38;15.68;;;;;;;;;;12972631;22;20722;-81
2023/11/09 20:03:58;;;;;;;26.77;16.93;;;;;;;;;;12969504;22;20383;-81
2023/11/09 20:09:00;;;;;;;24.73;16.35;;;;;;;;;;12967803;22;20749;-82
2023/11/09 20:14:05;;;;;;;26.70;16.35;;;;;;;;;;12969164;22;20432;-81
2023/11/09 20:19:07;;;;;;;24.63;15.50;;;;;;;;;;12970646;22;20375;-81
2023/11/09 20:24:10;;;;;;;24.47;16.10;;;;;;;;;;12971451;22;20455;-81
2023/11/09 20:29:14;;;;;;;29.33;18.52;;;;;;;;;;12969834;22;20448;-79
2023/11/09 20:34:16;;;;;;;24.40;15.73;;;;;;;;;;12968675;22;20371;-81
2023/11/09 20:39:21;;;;;;;23.42;15.20;;;;;;;;;;12969765;22;20447;-81
2023/11/09 20:44:24;;;;;;;22.33;14.77;;;;;;;;;;12969513;22;20375;-81
2023/11/09 20:49:27;;;;;;;22.52;14.57;;;;;;;;;;12968070;22;20382;-81
2023/11/09 20:54:29;;;;;;;20.63;13.18;;;;;;;;;;12969822;22;20379;-81
2023/11/09 20:59:33;;;;;;;19.60;12.10;;;;;;;;;;12970019;22;20386;-81
2023/11/09 21:04:35;;;;;;;18.00;11.60;;;;;;;;;;12968531;22;20390;-81
2023/11/09 21:09:39;;;;;;;16.70;10.77;;;;;;;;;;12961282;22;21123;-82
2023/11/09 21:14:43;;;;;;;18.13;10.90;;;;;;;;;;12963819;22;20921;-82
2023/11/09 21:19:45;;;;;;;19.15;12.50;;;;;;;;;;12960982;22;20397;-82
2023/11/09 21:24:51;;;;;;;16.38;11.48;;;;;;;;;;12965786;22;20839;-81
2023/11/09 21:29:55;;;;;;;17.10;11.88;;;;;;;;;;12968378;22;21006;-81
2023/11/09 21:34:57;;;;;;;20.45;11.95;;;;;;;;;;12966795;22;21077;-81
2023/11/09 21:39:59;;;;;;;20.20;11.50;;;;;;;;;;12965077;22;20451;-82
2023/11/09 21:45:04;;;;;;;18.55;11.63;;;;;;;;;;12965555;22;20444;-81
2023/11/09 21:50:10;;;;;;;20.55;12.07;;;;;;;;;;12965558;22;20383;-81
2023/11/09 21:55:17;;;;;;;20.90;11.70;;;;;;;;;;12965570;22;20387;-81
2023/11/09 22:00:21;;;;;;;17.45;10.75;;;;;;;;;;12967711;22;20378;-81
2023/11/09 22:05:24;;;;;;;20.17;11.90;;;;;;;;;;12967557;22;20378;-81
2023/11/09 22:10:26;;;;;;;20.70;11.40;;;;;;;;;;12967930;22;20382;-81
2023/11/09 22:15:30;;;;;;;21.52;11.45;;;;;;;;;;12967568;22;20862;-82
2023/11/09 22:20:32;;;;;;;18.58;11.20;;;;;;;;;;12967977;22;20819;-80
2023/11/09 22:25:36;;;;;;;20.83;11.35;;;;;;;;;;12966746;22;20429;-81
2023/11/09 22:30:40;;;;;;;22.13;11.80;;;;;;;;;;12967570;22;20359;-80
2023/11/09 22:35:42;;;;;;;17.97;11.43;;;;;;;;;;12963763;22;20387;-80
2023/11/09 22:40:45;;;;;;;18.87;11.33;;;;;;;;;;12966456;22;20374;-80
2023/11/09 22:45:48;;;;;;;19.20;11.20;;;;;;;;;;12965303;22;20374;-79
2023/11/09 22:50:51;;;;;;;17.30;10.60;;;;;;;;;;12963294;22;20512;-80
2023/11/09 22:55:53;;;;;;;18.38;11.32;;;;;;;;;;12964579;22;20382;-80
2023/11/09 23:01:00;;;;;;;19.50;11.27;;;;;;;;;;12978790;22;20760;-80
2023/11/09 23:06:02;;;;;;;19.27;10.38;;;;;;;;;;12965700;22;20387;-81
2023/11/09 23:11:04;;;;;;;17.02;10.60;;;;;;;;;;12976020;22;20897;-81
2023/11/09 23:16:08;;;;;;;20.10;10.70;;;;;;;;;;12977379;22;20382;-81
2023/11/09 23:21:10;;;;;;;16.85;10.20;;;;;;;;;;12976957;22;20366;-81
2023/11/09 23:26:13;;;;;;;12.13;8.65;;;;;;;;;;12976505;22;20694;-80
2023/11/09 23:31:17;;;;;;;14.93;7.60;;;;;;;;;;12976846;22;20461;-81
2023/11/09 23:36:19;;;;;;;12.20;7.60;;;;;;;;;;12975171;22;20382;-81
2023/11/09 23:41:22;;;;;;;11.00;6.45;;;;;;;;;;12978802;22;20366;-81
2023/11/09 23:46:26;;;;;;;10.63;5.83;;;;;;;;;;12980135;22;20417;-81
2023/11/09 23:51:28;;;;;;;14.10;8.13;;;;;;;;;;12980006;22;20371;-81
2023/11/09 23:56:30;;;;;;;15.80;8.30;;;;;;;;;;12980137;22;20712;-81
